createdAt,value
2019-01-10T00:00:24.848Z,3.30
2019-01-10T00:03:31.346Z,3.50
2019-01-10T00:06:36.162Z,3.50
2019-01-10T00:09:40.987Z,3.30
2019-01-10T00:12:45.855Z,3.30
2019-01-10T00:15:50.654Z,3.30
2019-01-10T00:18:55.567Z,3.30
2019-01-10T00:22:00.412Z,3.30
2019-01-10T00:25:10.373Z,3.30
2019-01-10T00:28:15.650Z,3.30
2019-01-10T00:31:20.450Z,3.40
2019-01-10T00:34:25.281Z,3.20
2019-01-10T00:37:30.107Z,3.40
2019-01-10T00:40:34.949Z,3.30
2019-01-10T00:43:39.857Z,3.30
2019-01-10T00:46:44.733Z,3.40
2019-01-10T00:49:49.566Z,3.20
2019-01-10T00:52:54.392Z,3.40
2019-01-10T00:55:59.189Z,3.00
2019-01-10T00:59:04.074Z,3.30
2019-01-10T01:02:08.926Z,3.20
2019-01-10T01:05:15.078Z,3.30
2019-01-10T01:08:19.958Z,3.30
2019-01-10T01:11:24.830Z,3.40
2019-01-10T01:14:29.678Z,3.40
2019-01-10T01:17:34.509Z,3.20
2019-01-10T01:20:39.357Z,3.20
2019-01-10T01:23:44.178Z,3.00
2019-01-10T01:26:49.026Z,3.30
2019-01-10T01:29:53.865Z,3.40
2019-01-10T01:32:58.839Z,3.40
2019-01-10T01:36:03.756Z,3.30
2019-01-10T01:39:08.649Z,3.30
2019-01-10T01:42:13.506Z,3.20
2019-01-10T01:45:19.552Z,3.20
2019-01-10T01:48:25.372Z,3.40
2019-01-10T01:51:30.266Z,3.20
2019-01-10T01:54:35.111Z,3.20
2019-01-10T01:57:39.937Z,3.20
2019-01-10T02:00:44.785Z,3.20
2019-01-10T02:03:50.100Z,3.40
2019-01-10T02:06:54.911Z,3.30
2019-01-10T02:09:59.753Z,3.40
2019-01-10T02:13:04.630Z,3.30
2019-01-10T02:16:09.519Z,3.00
2019-01-10T02:19:14.331Z,3.10
2019-01-10T02:22:19.152Z,3.10
2019-01-10T02:25:24.060Z,3.00
2019-01-10T02:28:29.021Z,3.20
2019-01-10T02:31:33.896Z,3.20
2019-01-10T02:34:38.804Z,3.10
2019-01-10T02:37:43.795Z,3.10
2019-01-10T02:40:48.763Z,3.10
2019-01-10T02:43:53.619Z,3.10
2019-01-10T02:46:58.439Z,3.20
2019-01-10T02:50:05.010Z,3.10
2019-01-10T02:53:09.849Z,3.10
2019-01-10T02:56:14.659Z,3.10
2019-01-10T02:59:19.510Z,3.00
2019-01-10T03:02:24.335Z,2.80
2019-01-10T03:05:29.148Z,3.10
2019-01-10T03:08:34.532Z,3.30
2019-01-10T03:11:39.338Z,3.20
2019-01-10T03:14:44.225Z,3.30
2019-01-10T03:17:49.026Z,3.10
2019-01-10T03:20:53.918Z,3.10
2019-01-10T03:23:58.721Z,3.10
2019-01-10T03:27:03.547Z,3.10
2019-01-10T03:30:11.774Z,3.00
2019-01-10T03:33:16.647Z,3.10
2019-01-10T03:36:21.466Z,3.00
2019-01-10T03:39:26.270Z,3.10
2019-01-10T03:42:31.183Z,3.00
2019-01-10T03:45:36.120Z,3.10
2019-01-10T03:48:41.030Z,2.80
2019-01-10T03:51:45.870Z,2.80
2019-01-10T03:54:50.699Z,3.10
2019-01-10T03:57:55.514Z,3.00
2019-01-10T04:01:00.384Z,3.10
2019-01-10T04:04:05.297Z,3.10
2019-01-10T04:07:10.156Z,3.10
2019-01-10T04:10:16.182Z,2.80
2019-01-10T04:13:21.001Z,3.10
2019-01-10T04:16:25.834Z,3.10
2019-01-10T04:19:30.649Z,3.10
2019-01-10T04:22:35.496Z,3.10
2019-01-10T04:25:42.938Z,3.00
2019-01-10T04:28:47.211Z,3.10
2019-01-10T04:31:52.079Z,3.10
2019-01-10T04:34:56.897Z,3.10
2019-01-10T04:38:01.759Z,3.20
2019-01-10T04:41:06.614Z,3.00
2019-01-10T04:44:12.346Z,3.10
2019-01-10T04:47:17.160Z,3.10
2019-01-10T04:50:22.008Z,2.90
2019-01-10T04:53:26.857Z,2.90
2019-01-10T04:56:31.751Z,2.90
2019-01-10T04:59:37.575Z,2.70
2019-01-10T05:02:42.463Z,2.70
2019-01-10T05:05:47.267Z,2.90
2019-01-10T05:08:52.130Z,2.90
2019-01-10T05:11:56.943Z,2.70
2019-01-10T05:15:02.449Z,2.90
2019-01-10T05:18:08.203Z,2.80
2019-01-10T05:21:13.228Z,2.70
2019-01-10T05:24:18.113Z,2.70
2019-01-10T05:27:22.968Z,2.80
2019-01-10T05:30:27.855Z,2.70
2019-01-10T05:33:32.677Z,2.60
2019-01-10T05:36:37.624Z,2.50
2019-01-10T05:39:47.647Z,2.40
2019-01-10T05:42:49.085Z,2.60
2019-01-10T05:45:54.003Z,2.60
2019-01-10T05:48:58.850Z,2.70
2019-01-10T05:52:03.654Z,2.60
2019-01-10T05:55:11.218Z,2.60
2019-01-10T05:58:16.035Z,2.60
2019-01-10T06:01:20.904Z,2.70
2019-01-10T06:04:25.803Z,2.50
2019-01-10T06:07:30.609Z,2.60
2019-01-10T06:10:35.487Z,2.60
2019-01-10T06:13:40.354Z,2.60
2019-01-10T06:16:45.274Z,2.60
2019-01-10T06:19:50.556Z,2.70
2019-01-10T06:22:55.445Z,2.60
2019-01-10T06:26:00.285Z,2.60
2019-01-10T06:29:05.099Z,2.70
2019-01-10T06:32:09.951Z,2.60
2019-01-10T06:35:14.766Z,2.70
2019-01-10T06:38:19.615Z,2.60
2019-01-10T06:41:24.456Z,2.60
2019-01-10T06:44:29.350Z,2.20
2019-01-10T06:47:34.176Z,2.70
2019-01-10T06:50:39.178Z,2.50
2019-01-10T06:53:45.097Z,2.60
2019-01-10T06:56:49.933Z,2.60
2019-01-10T06:59:55.453Z,2.40
2019-01-10T07:03:00.289Z,2.40
2019-01-10T07:06:05.224Z,2.40
2019-01-10T07:09:10.208Z,2.20
2019-01-10T07:12:15.029Z,2.50
2019-01-10T07:15:19.871Z,2.40
2019-01-10T07:18:24.684Z,2.50
2019-01-10T07:21:31.200Z,2.40
2019-01-10T07:24:37.587Z,2.50
2019-01-10T07:27:43.303Z,2.40
2019-01-10T07:30:48.112Z,2.30
2019-01-10T07:33:57.191Z,2.40
2019-01-10T07:37:02.021Z,2.30
2019-01-10T07:40:12.441Z,2.40
2019-01-10T07:43:22.210Z,2.40
2019-01-10T07:46:27.042Z,2.20
2019-01-10T07:49:31.885Z,2.40
2019-01-10T07:52:36.690Z,2.50
2019-01-10T07:55:41.546Z,2.40
2019-01-10T07:58:46.431Z,2.40
2019-01-10T08:01:51.253Z,2.30
2019-01-10T08:04:56.100Z,2.10
2019-01-10T08:08:00.998Z,2.10
2019-01-10T08:11:05.978Z,2.10
2019-01-10T08:14:10.814Z,2.40
2019-01-10T08:17:16.353Z,2.40
2019-01-10T08:20:21.239Z,2.20
2019-01-10T08:23:27.087Z,2.30
2019-01-10T08:26:31.922Z,2.30
2019-01-10T08:29:36.738Z,2.20
2019-01-10T08:32:41.549Z,2.40
2019-01-10T08:35:46.463Z,2.40
2019-01-10T08:38:51.350Z,2.40
2019-01-10T08:41:56.213Z,2.40
2019-01-10T08:45:01.117Z,2.50
2019-01-10T08:48:07.027Z,2.40
2019-01-10T08:51:11.836Z,2.30
2019-01-10T08:54:16.685Z,2.40
2019-01-10T08:57:23.059Z,2.50
2019-01-10T09:00:28.038Z,2.60
2019-01-10T09:03:32.870Z,2.70
2019-01-10T09:06:37.681Z,2.40
2019-01-10T09:09:42.493Z,2.60
2019-01-10T09:12:47.637Z,2.70
2019-01-10T09:15:52.472Z,2.40
2019-01-10T09:18:57.310Z,2.60
2019-01-10T09:22:02.218Z,2.60
2019-01-10T09:25:07.299Z,2.70
2019-01-10T09:28:12.166Z,2.70
2019-01-10T09:31:16.959Z,2.70
2019-01-10T09:34:24.899Z,2.90
2019-01-10T09:37:28.432Z,3.00
2019-01-10T09:40:33.282Z,2.90
2019-01-10T09:43:38.135Z,3.10
2019-01-10T09:46:42.950Z,3.30
2019-01-10T09:49:47.850Z,3.00
2019-01-10T09:52:52.678Z,3.00
2019-01-10T09:55:57.530Z,3.10
2019-01-10T09:59:02.590Z,3.00
2019-01-10T10:02:07.401Z,3.10
2019-01-10T10:05:12.242Z,3.10
2019-01-10T10:08:17.065Z,2.90
2019-01-10T10:11:21.936Z,2.80
2019-01-10T10:14:26.764Z,2.90
2019-01-10T10:17:31.896Z,2.90
2019-01-10T10:20:36.842Z,2.80
2019-01-10T10:23:41.725Z,3.10
2019-01-10T10:26:46.696Z,3.10
2019-01-10T10:29:51.522Z,3.00
2019-01-10T10:32:56.376Z,3.30
2019-01-10T10:36:01.243Z,3.20
2019-01-10T10:39:07.397Z,3.20
2019-01-10T10:42:12.230Z,3.30
2019-01-10T10:45:19.226Z,3.50
2019-01-10T10:48:24.058Z,3.60
2019-01-10T10:51:28.895Z,3.50
2019-01-10T10:54:33.741Z,3.60
2019-01-10T10:57:38.783Z,3.50
2019-01-10T11:00:43.722Z,3.50
2019-01-10T11:03:48.548Z,3.40
2019-01-10T11:06:53.385Z,3.20
2019-01-10T11:09:58.189Z,3.50
2019-01-10T11:13:03.011Z,3.50
2019-01-10T11:16:10.664Z,3.60
2019-01-10T11:19:14.399Z,3.50
2019-01-10T11:22:19.231Z,3.80
2019-01-10T11:25:24.626Z,3.70
2019-01-10T11:28:29.442Z,3.40
2019-01-10T11:31:34.276Z,3.40
2019-01-10T11:34:39.075Z,3.40
2019-01-10T11:37:44.817Z,3.30
2019-01-10T11:40:49.621Z,3.40
2019-01-10T11:43:54.476Z,3.40
2019-01-10T11:46:59.270Z,3.30
2019-01-10T11:50:07.358Z,3.40
2019-01-10T11:53:12.183Z,3.90
2019-01-10T11:56:16.989Z,3.50
2019-01-10T11:59:21.958Z,3.60
2019-01-10T12:02:26.788Z,3.80
2019-01-10T12:05:31.594Z,3.50
2019-01-10T12:08:36.430Z,3.60
2019-01-10T12:11:41.264Z,3.60
2019-01-10T12:14:46.077Z,3.60
2019-01-10T12:17:50.918Z,3.80
2019-01-10T12:20:55.754Z,3.80
2019-01-10T12:24:00.673Z,3.70
2019-01-10T12:27:05.490Z,3.50
2019-01-10T12:30:16.355Z,3.50
2019-01-10T12:33:21.355Z,3.50
2019-01-10T12:36:26.169Z,3.50
2019-01-10T12:39:30.986Z,3.40
2019-01-10T12:42:36.773Z,3.50
2019-01-10T12:45:42.013Z,3.50
2019-01-10T12:48:47.414Z,3.60
2019-01-10T12:51:52.250Z,3.10
2019-01-10T12:54:57.091Z,3.30
2019-01-10T12:58:01.989Z,3.40
2019-01-10T13:01:06.919Z,3.50
2019-01-10T13:04:11.794Z,3.50
2019-01-10T13:07:16.630Z,3.70
2019-01-10T13:10:21.481Z,3.70
2019-01-10T13:13:26.285Z,3.80
2019-01-10T13:16:31.106Z,3.70
2019-01-10T13:19:36.190Z,3.60
2019-01-10T13:22:41.047Z,3.60
2019-01-10T13:25:45.955Z,3.50
2019-01-10T13:28:50.784Z,3.40
2019-01-10T13:31:55.618Z,3.50
2019-01-10T13:35:00.453Z,3.30
2019-01-10T13:38:05.344Z,3.10
2019-01-10T13:41:10.669Z,3.30
2019-01-10T13:44:15.630Z,3.00
2019-01-10T13:47:20.429Z,3.30
2019-01-10T13:50:27.203Z,3.30
2019-01-10T13:53:32.081Z,3.30
2019-01-10T13:56:36.976Z,3.20
2019-01-10T13:59:41.791Z,3.20
2019-01-10T14:02:46.598Z,3.20
2019-01-10T14:05:51.442Z,3.20
2019-01-10T14:08:56.432Z,3.00
2019-01-10T14:12:01.260Z,2.90
2019-01-10T14:15:09.626Z,2.90
2019-01-10T14:18:14.425Z,3.00
2019-01-10T14:21:19.268Z,2.90
2019-01-10T14:24:24.110Z,2.90
2019-01-10T14:27:28.927Z,2.90
2019-01-10T14:30:36.382Z,2.90
2019-01-10T14:33:41.245Z,2.80
2019-01-10T14:36:46.122Z,2.80
2019-01-10T14:39:50.965Z,2.60
2019-01-10T14:42:55.853Z,2.40
2019-01-10T14:46:00.708Z,2.70
2019-01-10T14:49:05.590Z,2.60
2019-01-10T14:52:10.422Z,2.60
2019-01-10T14:55:15.406Z,2.50
2019-01-10T14:58:20.226Z,2.60
2019-01-10T15:01:25.056Z,2.40
2019-01-10T15:04:29.893Z,2.60
2019-01-10T15:07:34.694Z,2.40
2019-01-10T15:10:39.658Z,2.50
2019-01-10T15:13:44.559Z,2.40
2019-01-10T15:16:49.446Z,2.50
2019-01-10T15:19:54.513Z,2.30
2019-01-10T15:22:59.342Z,2.40
2019-01-10T15:26:04.250Z,2.40
2019-01-10T15:29:09.083Z,2.40
2019-01-10T15:32:13.905Z,2.40
2019-01-10T15:35:18.803Z,2.30
2019-01-10T15:38:23.740Z,2.40
2019-01-10T15:41:28.629Z,2.50
2019-01-10T15:44:33.503Z,2.40
2019-01-10T15:47:38.334Z,2.20
2019-01-10T15:50:43.248Z,2.30
2019-01-10T15:53:48.110Z,2.20
2019-01-10T15:56:53.022Z,2.20
2019-01-10T15:59:57.875Z,2.20
2019-01-10T16:03:02.708Z,2.10
2019-01-10T16:06:07.548Z,2.20
2019-01-10T16:09:12.370Z,2.10
2019-01-10T16:12:17.264Z,2.10
2019-01-10T16:15:23.730Z,2.10
2019-01-10T16:18:28.626Z,2.20
2019-01-10T16:21:33.442Z,2.10
2019-01-10T16:24:38.245Z,2.20
2019-01-10T16:27:43.173Z,2.20
2019-01-10T16:30:47.968Z,2.00
2019-01-10T16:33:52.791Z,2.20
2019-01-10T16:36:57.592Z,2.20
2019-01-10T16:40:02.491Z,2.30
2019-01-10T16:43:11.926Z,2.00
2019-01-10T16:46:13.857Z,2.20
2019-01-10T16:49:18.666Z,2.30
2019-01-10T16:52:23.485Z,2.10
2019-01-10T16:55:28.306Z,2.10
2019-01-10T16:58:33.147Z,2.20
2019-01-10T17:01:37.954Z,2.00
2019-01-10T17:04:42.802Z,2.20
2019-01-10T17:07:47.695Z,2.20
2019-01-10T17:10:52.594Z,2.20
2019-01-10T17:13:57.508Z,2.20
2019-01-10T17:17:02.325Z,2.30
2019-01-10T17:20:10.229Z,2.20
2019-01-10T17:23:15.124Z,2.10
2019-01-10T17:26:20.940Z,2.00
2019-01-10T17:29:25.805Z,2.10
2019-01-10T17:32:30.792Z,2.20
2019-01-10T17:35:35.690Z,2.20
2019-01-10T17:38:40.637Z,2.10
2019-01-10T17:41:45.542Z,2.20
2019-01-10T17:44:50.370Z,2.20
2019-01-10T17:47:55.181Z,2.10
2019-01-10T17:51:00.986Z,2.10
2019-01-10T17:54:05.842Z,2.20
2019-01-10T17:57:12.597Z,2.30
2019-01-10T18:00:22.791Z,2.20
2019-01-10T18:03:27.648Z,2.20
2019-01-10T18:06:32.570Z,2.30
2019-01-10T18:09:37.391Z,2.10
2019-01-10T18:12:43.351Z,2.20
2019-01-10T18:15:48.230Z,1.90
2019-01-10T18:18:53.063Z,2.10
2019-01-10T18:21:57.910Z,1.90
2019-01-10T18:25:02.733Z,1.90
2019-01-10T18:28:07.584Z,2.00
2019-01-10T18:31:12.482Z,2.10
2019-01-10T18:34:17.358Z,1.90
2019-01-10T18:37:22.234Z,2.00
2019-01-10T18:40:27.072Z,2.20
2019-01-10T18:43:32.722Z,2.00
2019-01-10T18:46:37.570Z,1.70
2019-01-10T18:49:42.438Z,2.00
2019-01-10T18:52:47.274Z,1.80
2019-01-10T18:55:52.112Z,1.90
2019-01-10T18:58:57.195Z,1.90
2019-01-10T19:02:02.040Z,2.00
2019-01-10T19:05:07.298Z,2.00
2019-01-10T19:08:12.129Z,2.00
2019-01-10T19:11:16.945Z,2.00
2019-01-10T19:14:21.774Z,1.90
2019-01-10T19:17:26.598Z,1.90
2019-01-10T19:20:31.453Z,1.80
2019-01-10T19:23:36.349Z,1.80
2019-01-10T19:26:41.211Z,2.00
2019-01-10T19:29:46.042Z,1.90
2019-01-10T19:32:50.950Z,2.10
2019-01-10T19:35:55.807Z,2.00
2019-01-10T19:39:00.614Z,2.00
2019-01-10T19:42:05.458Z,2.00
2019-01-10T19:45:12.693Z,2.10
2019-01-10T19:48:17.645Z,2.00
2019-01-10T19:51:22.606Z,2.00
2019-01-10T19:54:27.486Z,1.90
2019-01-10T19:57:33.321Z,1.90
2019-01-10T20:00:38.860Z,1.70
2019-01-10T20:03:45.010Z,1.90
2019-01-10T20:06:49.817Z,1.80
2019-01-10T20:09:54.657Z,1.80
2019-01-10T20:12:59.487Z,1.70
2019-01-10T20:16:04.786Z,1.80
2019-01-10T20:19:11.485Z,1.80
2019-01-10T20:22:16.362Z,1.70
2019-01-10T20:25:22.104Z,1.60
2019-01-10T20:28:26.969Z,1.80
2019-01-10T20:31:31.857Z,1.70
2019-01-10T20:34:36.725Z,1.70
2019-01-10T20:37:41.586Z,1.80
2019-01-10T20:40:46.767Z,1.90
2019-01-10T20:43:52.156Z,1.70
2019-01-10T20:46:56.955Z,1.70
2019-01-10T20:50:01.791Z,1.80
2019-01-10T20:53:06.698Z,1.70
2019-01-10T20:56:11.542Z,1.70
2019-01-10T20:59:16.603Z,1.80
2019-01-10T21:02:22.181Z,1.80
2019-01-10T21:05:26.995Z,1.60
2019-01-10T21:08:31.819Z,1.50
2019-01-10T21:11:36.728Z,1.50
2019-01-10T21:14:41.550Z,1.80
2019-01-10T21:17:49.151Z,1.80
2019-01-10T21:20:54.163Z,1.80
2019-01-10T21:23:58.971Z,1.80
2019-01-10T21:27:03.814Z,1.60
2019-01-10T21:30:11.898Z,1.70
2019-01-10T21:33:16.773Z,1.70
2019-01-10T21:36:21.630Z,1.70
2019-01-10T21:39:26.470Z,1.70
2019-01-10T21:42:31.334Z,1.40
2019-01-10T21:45:36.259Z,1.60
2019-01-10T21:48:41.150Z,1.60
2019-01-10T21:51:46.342Z,1.60
2019-01-10T21:54:51.165Z,1.70
2019-01-10T21:57:55.969Z,1.60
2019-01-10T22:01:00.871Z,1.60
2019-01-10T22:04:05.785Z,1.70
2019-01-10T22:07:10.602Z,1.60
2019-01-10T22:10:15.423Z,1.80
2019-01-10T22:13:21.228Z,1.90
2019-01-10T22:16:26.138Z,1.70
2019-01-10T22:19:30.955Z,1.80
2019-01-10T22:22:35.766Z,1.50
2019-01-10T22:25:40.598Z,1.80
2019-01-10T22:28:45.426Z,1.80
2019-01-10T22:31:50.251Z,1.70
2019-01-10T22:34:55.061Z,1.70
2019-01-10T22:37:59.896Z,1.70
2019-01-10T22:41:04.724Z,1.70
2019-01-10T22:44:09.636Z,1.80
2019-01-10T22:47:14.433Z,1.60
2019-01-10T22:50:20.627Z,1.70
2019-01-10T22:53:25.510Z,1.80
2019-01-10T22:56:30.326Z,1.80
2019-01-10T22:59:35.133Z,1.50
2019-01-10T23:02:39.966Z,1.50
2019-01-10T23:05:44.870Z,1.60
2019-01-10T23:08:49.753Z,1.70
2019-01-10T23:11:54.598Z,1.80
2019-01-10T23:14:59.447Z,1.70
2019-01-10T23:18:06.021Z,1.60
2019-01-10T23:21:10.868Z,1.60
2019-01-10T23:24:17.264Z,1.70
2019-01-10T23:27:22.084Z,1.80
2019-01-10T23:30:45.779Z,1.70
2019-01-10T23:33:50.582Z,1.50
2019-01-10T23:36:55.498Z,1.80
2019-01-10T23:40:00.308Z,1.60
2019-01-10T23:43:05.336Z,1.40
2019-01-10T23:46:10.253Z,1.40
2019-01-10T23:49:15.154Z,1.60
2019-01-10T23:52:19.960Z,1.50
2019-01-10T23:55:24.827Z,1.60
2019-01-10T23:58:29.678Z,1.60
